AirNav   Air Wisconsin pilot careers
 
 946 users online  

GA18 Big Creek Flying Ranch Airport
Clayton, Georgia, USA

GOING TO CLAYTON?


FAA INFORMATION EFFECTIVE 26 APRIL 2018

Location

FAA Identifier: GA18
Lat/Long: 34-49-58.3340N / 083-24-34.5830W
34-49.972233N / 083-24.576383W
34.8328706 / -83.4096064
(estimated)
Elevation: 1650 ft. / 503 m (estimated)
Variation: 03W (1985)
From city: 4 miles SE of CLAYTON, GA
Time zone: UTC -4 (UTC -5 during Standard Time)
Zip code: 30525

Airport Operations

Airport use: Private use. Permission required prior to landing
Activation date: 11/1988
Control tower: no
ARTCC: ATLANTA CENTER
FSS: MACON FLIGHT SERVICE STATION
1-WX-BRIEF
Attendance: UNATNDD
Wind indicator: yes
Segmented circle: no

Airport Communications

WX AWOS-3 at TOC (15 nm S): 119.625 (706-297-7473)

Nearby radio navigation aids

VOR radial/distance  VOR name  Freq  Var
ODFr326/9.9FOOTHILLS VORTAC113.4000E
HRSr105/25.8HARRIS VORTAC109.8000E
ELWr309/39.6ELECTRIC CITY VORTAC108.6000E

 
NDB name  Hdg/Dist  Freq  Var  ID
CLEMSON295/27.525705WCEU -.-. . ..-
LAKE KEOWEE276/34.840804WLQK .-.. --.- -.-

Airport Services

Runway Information

Runway 9/27

Dimensions: 2800 x 60 ft. / 853 x 18 m
Surface: turf
RUNWAY 9  RUNWAY 27
Traffic pattern: leftleft
Displaced threshold: 100 ft.no
Obstructions: 5 ft. fence40 ft. pline, marked, 600 ft. from runway

Airport Ownership and Management from official FAA records

Ownership: Privately-owned
Owner: DELTA BRANO ENTERPRISES INC
34 BLOWING WIND LANE
CLAYTON, GA 30525
Phone 770-596-3689
Manager: DANNY BENSON
34 BLOWING WIND LANE
CLAYTON, GA 30525
Phone 770-596-3689

Airport Operational Statistics

Aircraft based on the field: 1
Single engine airplanes: 1
    

Additional Remarks

RWY 27 FOR LDG ONLY;RWY 09 FOR DEP ONLY-STRAIGHT OUT AND DOWN THE VALLEY

Instrument Procedures

There are no published instrument procedures at GA18.

Some nearby airports with instrument procedures:

KTOC - Toccoa Airport-RG Letourneau Field (15 nm S)
KAJR - Habersham County Airport (21 nm S)
1A5 - Macon County Airport (23 nm N)
KCEU - Oconee County Regional Airport (28 nm E)
KDZJ - Blairsville Airport (29 nm W)
 
Loc | Ops | Rwys | IFR | FBO | Links
Com | Nav | Svcs | Stats | Notes

AirNav Hotels Sweepstakes
 
Area around GA18 (Big Creek Flying Ranch Airport)
 
Road maps at: MapQuest Bing Google
 
Aerial photo
No photo
 
Sectional chart

 
Airport distance calculator
Flying to Big Creek Flying Ranch Airport? Find the distance to fly.

From to GA18

Sunrise and sunset
Times for 26-Apr-2018
 Local
(UTC-4)
 Zulu
(UTC)
Morning civil twilight06:2310:23
Sunrise06:5010:50
Sunset20:1300:13
Evening civil twilight20:4000:40

Current date and time
Zulu (UTC)  27-Apr-2018 00:39:52
Local (UTC-4)  26-Apr-2018 20:39:52
 
METAR
KTOC 
15nm S 
270015Z AUTO 04003KT 10SM SCT010 SCT014 OVC039 16/16 A2983 RMK AO2 T01620155
KAJR 
21nm S 
270015Z AUTO 00000KT 10SM -RA SCT009 BKN017 OVC030 13/13 A2981 RMK AO2 LTG DSNT SW AND W T01330133
K1A5 
23nm N 
270015Z AUTO 00000KT 7SM -RA SCT025 SCT037 OVC070 11/11 A2984 RMK AO2 P0001 T01110105
KCEU 
28nm E 
270017Z AUTO VRB03KT 10SM FEW008 BKN050 OVC070 14/13 A2983 RMK AO2 T01440133
KDZJ 
29nm W 
270015Z AUTO 00000KT 3SM RA BR OVC038 11/10 A2984 RMK AO2 VIS 2 1/2V4 LTG DSNT SE P0002 T01090104
KRHP 
30nm NW 
270015Z AUTO 00000KT 10SM SCT034 BKN050 OVC075 12/12 A2983 RMK AO2 T01230123
K24A 
31nm N 
270015Z AUTO 16006KT 10SM -RA BKN035 BKN042 OVC049 11/08 A2986 RMK AO2 T01050078
TAF
KAND 
40nm SE 
262208Z 2622/2718 12005KT P6SM VCSH FEW090 SCT120 FM270000 04004KT 5SM BR VCSH OVC012 FM270500 22005KT P6SM OVC004 FM271300 27005KT P6SM BKN025 FM271500 31006KT P6SM SCT050
NOTAMs
Click for the latest NOTAMs
NOTAMs are issued by the DoD/FAA and will open in a separate window not controlled by AirNav.

 

 
 

Would you like to see your business listed on this page?

 If your business provides an interesting product or service to pilots, flight crews, aircraft, or users of the Big Creek Flying Ranch Airport, you should consider listing it here.  To start the listing process, click on the button below
 
Add a business
 

Other Pages about Big Creek Flying Ranch Airport

Update a link
 
Copyright © AirNav, LLC. All rights reserved. Privacy Policy  Contact